Tropical Cyclones
[Index]
Main Index Home Page Stock Weather Photos Extreme Storms Discussion Storm News and Storm Chasing Reports Tropical Cyclones / Hurricanes / Typhoons Weather Data and Links Wild Fires / Bushfires Weather Observation Techniques Weather Picture Catalogue Tornado Pictures and Reports Stock Video Footage and DVDs for sale
Season 2006-2007 Tropical Cyclone CLOVIS Track Map
Season 2006-2007 Summaries (Operational Data): [AU] [SIO] [SPAC] [SH]
<<- Previous TC | 2006-2007 Season | Next TC ->>

click for intensity scale information  Lat/long Grid: Show Hide

 Date Labels: Show Hide

Operational Tropical Cyclone Data : JTWC Advisories

Name: CLOVIS
Number: 0706

29 Dec 2006 12:00 UTC to 04 Jan 2007 12:00 UTC

    date/time    lat    long     hPa   cat  kts
2006-12-29 12   12.0    57.8    1005         20          
2006-12-29 18   12.2    57.7    1005         20          
2006-12-30 00   12.3    57.1    1004         20          
2006-12-30 06   12.5    56.8    1002         25          
2006-12-30 12   13.0    56.0    1000         25          
2006-12-30 18   13.1    55.8    1000         25          
2006-12-31 00   13.6    55.4    1000         25          
2006-12-31 06   13.6    54.8     998         30          
2006-12-31 12   15.0    54.6     992    1    40          
2006-12-31 18   15.8    54.3     980    2    60          
2007-01-01 00   16.7    53.4     980    2    55          
2007-01-01 06   17.5    52.9     980    2    55          
2007-01-01 12   18.0    52.4     984    2    50          
2007-01-01 18   18.6    52.1     984    2    50          
2007-01-02 00   19.1    51.8     984    2    50          
2007-01-02 06   19.8    50.9     978    2    60          
2007-01-02 12   20.2    50.3     975    2    60          
2007-01-02 18   20.2    49.8     976    2    60          
2007-01-03 00   20.5    48.9     976    2    60          
2007-01-03 06   20.5    48.7     985    2    50          
2007-01-03 12   20.8    48.4     990    1    45          
2007-01-03 18   20.9    48.4     990    1    45          
2007-01-04 00   20.8    48.8     990    1    40          
2007-01-04 06   20.6    48.3                 25          
2007-01-04 12   20.5    48.3                 25          
Winds are 10-min average.

Tropical cyclone tracks developed by Michael Bath using operational warnings and advisories and Google Maps.


[Australian Severe Weather index] [Copyright Notice] [Email Contacts] [Search This Site] [Privacy Policy]
Document: tropical_cyclone_clovis.htm Updated: 28 May 2013